Santa Quiteria do Maranhao, Brazil
Current Conditions -  °F | °C
As of 11:00 AM on Monday 26 Jan 2015 (Local Time) from SBPB Reporting Station
Few Clouds Few Clouds  
Wind Chill: 93°   Ceiling: Unl
Heat Index: 101°   Visibility: 6mi
Dew Point: 72°   Wind: 17mph
Humidity: 49%   Direction: 90°E
Pressure: 29.91"   Gusts: NA
Location:  3.52°S, 42.55°W
Report Text: SBPB 261400Z 09015KT 9999 FEW020 34/22 Q1013
Loading
Personal Weather Stations






























Interactive Weather Map New forecast layout! Learn more

10-Day Weather Forecast

Advertisements
Track Severe Weather on mobile